sensor_id;sensor_type;location;lat;lon;timestamp;P1;P2;P0
65556;PMS3003;52200;53.490;14.376;2022-08-06T00:01:53;9.25;6.00;4.00
65556;PMS3003;52200;53.490;14.376;2022-08-06T00:04:19;11.40;8.40;5.00
65556;PMS3003;52200;53.490;14.376;2022-08-06T00:06:45;11.00;8.00;4.40
65556;PMS3003;52200;53.490;14.376;2022-08-06T00:09:10;11.25;7.00;4.75
65556;PMS3003;52200;53.490;14.376;2022-08-06T00:11:37;11.20;7.80;4.60
65556;PMS3003;52200;53.490;14.376;2022-08-06T00:14:03;11.20;7.60;5.00
65556;PMS3003;52200;53.490;14.376;2022-08-06T00:16:29;12.00;8.75;5.00
65556;PMS3003;52200;53.490;14.376;2022-08-06T00:18:54;11.50;7.50;4.50
65556;PMS3003;52200;53.490;14.376;2022-08-06T00:21:19;12.75;8.00;4.50
65556;PMS3003;52200;53.490;14.376;2022-08-06T00:23:45;12.50;8.50;4.75
65556;PMS3003;52200;53.490;14.376;2022-08-06T00:26:10;10.75;7.50;5.00
65556;PMS3003;52200;53.490;14.376;2022-08-06T00:28:36;12.00;6.50;4.00
65556;PMS3003;52200;53.490;14.376;2022-08-06T00:31:02;14.00;7.75;5.00
65556;PMS3003;52200;53.490;14.376;2022-08-06T00:33:29;12.20;7.20;5.00
65556;PMS3003;52200;53.490;14.376;2022-08-06T00:35:55;13.40;6.60;4.00
65556;PMS3003;52200;53.490;14.376;2022-08-06T00:38:21;11.00;8.00;5.00
65556;PMS3003;52200;53.490;14.376;2022-08-06T00:40:47;13.50;8.00;5.00
65556;PMS3003;52200;53.490;14.376;2022-08-06T00:43:13;10.60;7.00;4.00
65556;PMS3003;52200;53.490;14.376;2022-08-06T00:45:39;13.00;7.50;4.50
65556;PMS3003;52200;53.490;14.376;2022-08-06T00:48:04;11.25;8.25;4.25
65556;PMS3003;52200;53.490;14.376;2022-08-06T00:50:30;12.75;8.00;3.50
65556;PMS3003;52200;53.490;14.376;2022-08-06T00:52:56;10.20;6.20;4.20
65556;PMS3003;52200;53.490;14.376;2022-08-06T00:55:22;9.80;6.00;3.20
65556;PMS3003;52200;53.490;14.376;2022-08-06T00:57:47;10.25;5.50;3.00
65556;PMS3003;52200;53.490;14.376;2022-08-06T01:00:13;10.80;7.40;5.00
65556;PMS3003;52200;53.490;14.376;2022-08-06T01:02:39;11.00;7.00;4.00
65556;PMS3003;52200;53.490;14.376;2022-08-06T01:05:05;11.50;6.50;4.00
65556;PMS3003;52200;53.490;14.376;2022-08-06T01:07:31;9.00;5.00;3.00
65556;PMS3003;52200;53.490;14.376;2022-08-06T01:09:56;9.25;5.00;2.25
65556;PMS3003;52200;53.490;14.376;2022-08-06T01:12:22;10.00;6.00;3.50
65556;PMS3003;52200;53.490;14.376;2022-08-06T01:14:47;11.00;6.50;3.75
65556;PMS3003;52200;53.490;14.376;2022-08-06T01:17:15;9.00;5.00;3.00
65556;PMS3003;52200;53.490;14.376;2022-08-06T01:19:48;9.60;4.60;2.80
65556;PMS3003;52200;53.490;14.376;2022-08-06T01:30:36;9.00;5.00;3.00
65556;PMS3003;52200;53.490;14.376;2022-08-06T01:33:08;9.60;6.00;3.80
65556;PMS3003;52200;53.490;14.376;2022-08-06T01:35:42;11.00;5.00;2.00
65556;PMS3003;52200;53.490;14.376;2022-08-06T01:38:22;8.40;4.60;2.20
65556;PMS3003;52200;53.490;14.376;2022-08-06T01:41:11;8.60;5.00;3.00
65556;PMS3003;52200;53.490;14.376;2022-08-06T01:44:02;7.80;4.20;2.00
65556;PMS3003;52200;53.490;14.376;2022-08-06T01:46:31;7.60;4.00;2.00
65556;PMS3003;52200;53.490;14.376;2022-08-06T01:49:01;8.20;3.60;1.80
65556;PMS3003;52200;53.490;14.376;2022-08-06T01:51:27;10.60;4.00;2.00
65556;PMS3003;52200;53.490;14.376;2022-08-06T01:53:54;6.40;3.00;2.00
65556;PMS3003;52200;53.490;14.376;2022-08-06T01:56:20;7.20;3.00;2.00
65556;PMS3003;52200;53.490;14.376;2022-08-06T01:58:48;8.60;4.00;2.00
65556;PMS3003;52200;53.490;14.376;2022-08-06T02:01:17;7.20;3.60;2.00
65556;PMS3003;52200;53.490;14.376;2022-08-06T02:03:46;6.60;3.40;1.40
65556;PMS3003;52200;53.490;14.376;2022-08-06T02:06:17;6.60;3.00;1.00
65556;PMS3003;52200;53.490;14.376;2022-08-06T02:08:46;7.60;3.40;1.20
65556;PMS3003;52200;53.490;14.376;2022-08-06T02:11:14;7.00;3.20;2.00
65556;PMS3003;52200;53.490;14.376;2022-08-06T02:13:40;8.25;3.25;2.00
65556;PMS3003;52200;53.490;14.376;2022-08-06T02:16:07;6.60;2.00;1.40
65556;PMS3003;52200;53.490;14.376;2022-08-06T02:18:36;7.40;3.40;2.00
65556;PMS3003;52200;53.490;14.376;2022-08-06T02:21:10;6.80;3.20;1.00
65556;PMS3003;52200;53.490;14.376;2022-08-06T02:23:40;6.00;2.60;1.00
65556;PMS3003;52200;53.490;14.376;2022-08-06T02:26:06;6.80;3.80;1.00
65556;PMS3003;52200;53.490;14.376;2022-08-06T02:28:33;6.00;3.00;1.00
65556;PMS3003;52200;53.490;14.376;2022-08-06T02:31:01;7.00;3.20;1.60
65556;PMS3003;52200;53.490;14.376;2022-08-06T02:33:27;7.00;3.00;1.00
65556;PMS3003;52200;53.490;14.376;2022-08-06T02:36:36;6.00;3.00;2.00
65556;PMS3003;52200;53.490;14.376;2022-08-06T02:41:17;4.80;1.00;0.60
65556;PMS3003;52200;53.490;14.376;2022-08-06T02:44:20;6.80;3.00;1.00
65556;PMS3003;52200;53.490;14.376;2022-08-06T02:46:46;8.20;3.00;1.20
65556;PMS3003;52200;53.490;14.376;2022-08-06T02:49:17;6.00;1.40;1.00
65556;PMS3003;52200;53.490;14.376;2022-08-06T02:51:48;6.80;3.00;0.20
65556;PMS3003;52200;53.490;14.376;2022-08-06T02:54:20;6.80;2.20;1.00
65556;PMS3003;52200;53.490;14.376;2022-08-06T02:56:54;6.40;3.20;1.80
65556;PMS3003;52200;53.490;14.376;2022-08-06T02:59:24;9.00;4.00;1.20
65556;PMS3003;52200;53.490;14.376;2022-08-06T03:01:55;7.00;2.20;1.00
65556;PMS3003;52200;53.490;14.376;2022-08-06T03:04:25;7.60;3.60;2.00
65556;PMS3003;52200;53.490;14.376;2022-08-06T03:06:54;6.60;3.00;1.00
65556;PMS3003;52200;53.490;14.376;2022-08-06T03:09:21;7.20;4.00;1.00
65556;PMS3003;52200;53.490;14.376;2022-08-06T03:11:48;7.20;2.40;1.00
65556;PMS3003;52200;53.490;14.376;2022-08-06T03:14:16;6.60;3.00;1.00
65556;PMS3003;52200;53.490;14.376;2022-08-06T03:16:42;6.00;2.60;1.00
65556;PMS3003;52200;53.490;14.376;2022-08-06T03:19:09;7.40;2.00;1.40
65556;PMS3003;52200;53.490;14.376;2022-08-06T03:21:37;7.20;2.80;1.60
65556;PMS3003;52200;53.490;14.376;2022-08-06T03:24:06;7.00;2.60;0.80
65556;PMS3003;52200;53.490;14.376;2022-08-06T03:26:33;6.60;1.20;1.00
65556;PMS3003;52200;53.490;14.376;2022-08-06T03:29:01;6.00;3.00;1.00
65556;PMS3003;52200;53.490;14.376;2022-08-06T03:31:27;5.60;1.80;1.00
65556;PMS3003;52200;53.490;14.376;2022-08-06T03:33:55;6.00;2.00;1.00
65556;PMS3003;52200;53.490;14.376;2022-08-06T03:36:22;6.00;2.00;1.00
65556;PMS3003;52200;53.490;14.376;2022-08-06T03:38:56;7.00;3.00;1.60
65556;PMS3003;52200;53.490;14.376;2022-08-06T03:41:25;8.00;3.80;1.00
65556;PMS3003;52200;53.490;14.376;2022-08-06T03:43:53;6.80;2.60;1.00
65556;PMS3003;52200;53.490;14.376;2022-08-06T03:46:21;7.00;2.00;1.00
65556;PMS3003;52200;53.490;14.376;2022-08-06T03:48:50;5.40;2.20;1.00
65556;PMS3003;52200;53.490;14.376;2022-08-06T03:51:20;7.60;3.80;1.00
65556;PMS3003;52200;53.490;14.376;2022-08-06T03:53:48;5.00;2.00;1.00
65556;PMS3003;52200;53.490;14.376;2022-08-06T03:56:19;8.40;2.20;1.00
65556;PMS3003;52200;53.490;14.376;2022-08-06T03:58:47;6.40;3.00;1.00
65556;PMS3003;52200;53.490;14.376;2022-08-06T04:01:16;6.40;2.00;1.00
65556;PMS3003;52200;53.490;14.376;2022-08-06T04:03:51;5.20;1.60;1.00
65556;PMS3003;52200;53.490;14.376;2022-08-06T04:06:19;6.20;2.00;1.00
65556;PMS3003;52200;53.490;14.376;2022-08-06T04:08:47;5.80;2.20;1.00
65556;PMS3003;52200;53.490;14.376;2022-08-06T04:11:14;5.00;1.20;1.00
65556;PMS3003;52200;53.490;14.376;2022-08-06T04:13:42;5.40;2.00;1.00
65556;PMS3003;52200;53.490;14.376;2022-08-06T04:16:08;6.40;3.00;1.00
65556;PMS3003;52200;53.490;14.376;2022-08-06T04:18:38;6.00;3.00;1.00
65556;PMS3003;52200;53.490;14.376;2022-08-06T04:21:06;6.00;2.80;1.00
65556;PMS3003;52200;53.490;14.376;2022-08-06T04:23:37;5.00;1.60;0.40
65556;PMS3003;52200;53.490;14.376;2022-08-06T04:26:04;6.60;2.60;1.00
65556;PMS3003;52200;53.490;14.376;2022-08-06T04:28:33;7.40;2.40;1.00
65556;PMS3003;52200;53.490;14.376;2022-08-06T04:31:01;6.00;2.80;1.00
65556;PMS3003;52200;53.490;14.376;2022-08-06T04:33:28;6.60;2.80;1.00
65556;PMS3003;52200;53.490;14.376;2022-08-06T04:35:55;5.80;2.60;1.00
65556;PMS3003;52200;53.490;14.376;2022-08-06T04:38:25;6.80;3.00;1.00
65556;PMS3003;52200;53.490;14.376;2022-08-06T04:40:51;5.00;1.00;1.00
65556;PMS3003;52200;53.490;14.376;2022-08-06T04:43:18;6.20;3.00;1.00
65556;PMS3003;52200;53.490;14.376;2022-08-06T04:45:44;7.00;2.00;1.00
65556;PMS3003;52200;53.490;14.376;2022-08-06T04:48:11;5.00;2.00;1.00
65556;PMS3003;52200;53.490;14.376;2022-08-06T04:50:37;5.40;1.60;0.80
65556;PMS3003;52200;53.490;14.376;2022-08-06T04:53:07;5.00;1.80;0.60
65556;PMS3003;52200;53.490;14.376;2022-08-06T04:55:34;5.60;1.60;0.60
65556;PMS3003;52200;53.490;14.376;2022-08-06T04:58:01;6.00;2.00;0.20
65556;PMS3003;52200;53.490;14.376;2022-08-06T05:00:27;5.00;2.00;1.00
65556;PMS3003;52200;53.490;14.376;2022-08-06T05:02:52;5.50;2.25;1.00
65556;PMS3003;52200;53.490;14.376;2022-08-06T05:05:19;5.50;2.00;0.25
65556;PMS3003;52200;53.490;14.376;2022-08-06T05:07:46;6.00;2.60;1.00
65556;PMS3003;52200;53.490;14.376;2022-08-06T05:10:14;6.60;3.40;1.00
65556;PMS3003;52200;53.490;14.376;2022-08-06T05:12:42;5.00;2.00;1.00
65556;PMS3003;52200;53.490;14.376;2022-08-06T05:18:04;6.00;2.40;1.00
65556;PMS3003;52200;53.490;14.376;2022-08-06T05:20:34;6.40;2.00;1.00
65556;PMS3003;52200;53.490;14.376;2022-08-06T05:23:06;4.40;1.00;0.20
65556;PMS3003;52200;53.490;14.376;2022-08-06T05:25:42;5.40;2.00;0.80
65556;PMS3003;52200;53.490;14.376;2022-08-06T05:28:08;5.20;2.00;1.00
65556;PMS3003;52200;53.490;14.376;2022-08-06T05:30:40;7.00;3.00;1.75
65556;PMS3003;52200;53.490;14.376;2022-08-06T05:33:07;4.80;1.40;0.40
65556;PMS3003;52200;53.490;14.376;2022-08-06T05:35:32;5.00;1.00;1.00
65556;PMS3003;52200;53.490;14.376;2022-08-06T05:38:00;5.00;1.40;1.00
65556;PMS3003;52200;53.490;14.376;2022-08-06T05:40:25;5.00;2.00;1.00
65556;PMS3003;52200;53.490;14.376;2022-08-06T05:42:58;4.00;0.80;0.00
65556;PMS3003;52200;53.490;14.376;2022-08-06T05:45:23;5.00;1.50;0.75
65556;PMS3003;52200;53.490;14.376;2022-08-06T05:47:49;5.75;2.75;1.00
65556;PMS3003;52200;53.490;14.376;2022-08-06T05:50:16;6.00;1.75;1.00
65556;PMS3003;52200;53.490;14.376;2022-08-06T05:52:50;5.00;1.20;1.00
65556;PMS3003;52200;53.490;14.376;2022-08-06T05:55:30;5.80;2.00;0.80
65556;PMS3003;52200;53.490;14.376;2022-08-06T05:58:04;6.40;3.20;0.40
65556;PMS3003;52200;53.490;14.376;2022-08-06T06:00:35;6.00;3.00;1.00
65556;PMS3003;52200;53.490;14.376;2022-08-06T06:03:03;6.00;2.80;1.00
65556;PMS3003;52200;53.490;14.376;2022-08-06T06:05:31;6.20;3.00;1.00
65556;PMS3003;52200;53.490;14.376;2022-08-06T06:07:57;5.00;1.80;1.00
65556;PMS3003;52200;53.490;14.376;2022-08-06T06:10:24;6.00;1.80;1.00
65556;PMS3003;52200;53.490;14.376;2022-08-06T06:12:50;6.00;2.00;1.00
65556;PMS3003;52200;53.490;14.376;2022-08-06T06:15:17;6.60;1.20;0.00
65556;PMS3003;52200;53.490;14.376;2022-08-06T06:23:00;5.00;2.00;0.00
65556;PMS3003;52200;53.490;14.376;2022-08-06T06:25:40;4.60;0.80;0.60
65556;PMS3003;52200;53.490;14.376;2022-08-06T06:30:47;5.60;1.80;0.20
65556;PMS3003;52200;53.490;14.376;2022-08-06T06:36:10;4.80;1.00;0.00
65556;PMS3003;52200;53.490;14.376;2022-08-06T06:41:50;5.60;1.00;1.00
65556;PMS3003;52200;53.490;14.376;2022-08-06T06:47:05;3.60;0.60;0.00
65556;PMS3003;52200;53.490;14.376;2022-08-06T06:52:42;5.00;1.80;1.00
65556;PMS3003;52200;53.490;14.376;2022-08-06T06:55:22;4.60;1.00;0.00
65556;PMS3003;52200;53.490;14.376;2022-08-06T06:57:51;4.20;1.00;0.00
65556;PMS3003;52200;53.490;14.376;2022-08-06T07:00:21;4.40;1.00;1.00
65556;PMS3003;52200;53.490;14.376;2022-08-06T07:02:47;4.00;0.60;0.00
65556;PMS3003;52200;53.490;14.376;2022-08-06T07:05:14;4.00;1.00;0.00
65556;PMS3003;52200;53.490;14.376;2022-08-06T07:07:42;5.60;0.60;0.00
65556;PMS3003;52200;53.490;14.376;2022-08-06T07:10:10;4.80;1.20;0.20
65556;PMS3003;52200;53.490;14.376;2022-08-06T07:12:37;4.80;1.00;0.00
65556;PMS3003;52200;53.490;14.376;2022-08-06T07:15:06;5.00;2.00;0.00
65556;PMS3003;52200;53.490;14.376;2022-08-06T07:17:34;4.60;1.20;1.00
65556;PMS3003;52200;53.490;14.376;2022-08-06T07:20:03;4.00;1.00;0.00
65556;PMS3003;52200;53.490;14.376;2022-08-06T07:22:32;5.00;1.00;0.00
65556;PMS3003;52200;53.490;14.376;2022-08-06T07:25:01;4.00;1.00;0.40
65556;PMS3003;52200;53.490;14.376;2022-08-06T07:27:33;4.00;1.00;0.00
65556;PMS3003;52200;53.490;14.376;2022-08-06T07:30:05;4.20;1.20;0.00
65556;PMS3003;52200;53.490;14.376;2022-08-06T07:32:34;4.40;1.20;1.00
65556;PMS3003;52200;53.490;14.376;2022-08-06T07:35:02;4.00;0.60;0.00
65556;PMS3003;52200;53.490;14.376;2022-08-06T07:37:29;4.00;1.00;0.00
65556;PMS3003;52200;53.490;14.376;2022-08-06T07:39:57;5.00;0.20;0.00
65556;PMS3003;52200;53.490;14.376;2022-08-06T07:42:25;3.00;0.00;0.00
65556;PMS3003;52200;53.490;14.376;2022-08-06T07:44:55;3.00;0.00;0.00
65556;PMS3003;52200;53.490;14.376;2022-08-06T07:47:30;4.60;0.60;0.00
65556;PMS3003;52200;53.490;14.376;2022-08-06T07:50:01;3.40;0.00;0.00
65556;PMS3003;52200;53.490;14.376;2022-08-06T07:52:27;3.75;0.25;0.00
65556;PMS3003;52200;53.490;14.376;2022-08-06T07:54:54;2.80;0.00;0.00
65556;PMS3003;52200;53.490;14.376;2022-08-06T07:57:22;3.80;0.20;0.00
65556;PMS3003;52200;53.490;14.376;2022-08-06T07:59:48;4.00;0.20;0.00
65556;PMS3003;52200;53.490;14.376;2022-08-06T08:02:15;3.80;0.80;0.00
65556;PMS3003;52200;53.490;14.376;2022-08-06T08:04:42;4.00;0.00;0.00
65556;PMS3003;52200;53.490;14.376;2022-08-06T08:07:26;4.00;0.00;0.00
65556;PMS3003;52200;53.490;14.376;2022-08-06T08:09:53;4.00;0.60;0.00
65556;PMS3003;52200;53.490;14.376;2022-08-06T08:12:21;6.00;2.00;0.40
65556;PMS3003;52200;53.490;14.376;2022-08-06T08:14:48;4.60;0.40;0.00
65556;PMS3003;52200;53.490;14.376;2022-08-06T08:17:15;3.00;0.00;0.00
65556;PMS3003;52200;53.490;14.376;2022-08-06T08:19:41;4.25;0.25;0.00
65556;PMS3003;52200;53.490;14.376;2022-08-06T08:22:10;3.50;0.50;0.00
65556;PMS3003;52200;53.490;14.376;2022-08-06T08:24:36;4.20;0.60;0.00
65556;PMS3003;52200;53.490;14.376;2022-08-06T08:27:03;4.00;0.00;0.00
65556;PMS3003;52200;53.490;14.376;2022-08-06T08:29:33;2.80;0.00;0.00
65556;PMS3003;52200;53.490;14.376;2022-08-06T08:31:59;3.40;0.00;0.00
65556;PMS3003;52200;53.490;14.376;2022-08-06T08:34:25;2.60;0.00;0.00
65556;PMS3003;52200;53.490;14.376;2022-08-06T08:36:51;3.00;0.00;0.00
65556;PMS3003;52200;53.490;14.376;2022-08-06T08:39:16;3.00;0.00;0.00
65556;PMS3003;52200;53.490;14.376;2022-08-06T08:41:52;4.00;0.00;0.00
65556;PMS3003;52200;53.490;14.376;2022-08-06T08:44:24;3.80;0.00;0.00
65556;PMS3003;52200;53.490;14.376;2022-08-06T08:46:50;4.80;1.00;0.00
65556;PMS3003;52200;53.490;14.376;2022-08-06T08:49:20;4.60;0.60;0.00
65556;PMS3003;52200;53.490;14.376;2022-08-06T08:51:52;4.00;0.40;0.00
65556;PMS3003;52200;53.490;14.376;2022-08-06T08:54:21;3.40;0.00;0.00
65556;PMS3003;52200;53.490;14.376;2022-08-06T08:56:48;2.80;0.00;0.00
65556;PMS3003;52200;53.490;14.376;2022-08-06T08:59:14;3.40;0.00;0.00
65556;PMS3003;52200;53.490;14.376;2022-08-06T09:01:41;2.40;0.00;0.00
65556;PMS3003;52200;53.490;14.376;2022-08-06T09:04:07;3.00;0.00;0.00
65556;PMS3003;52200;53.490;14.376;2022-08-06T09:06:33;2.00;0.00;0.00
65556;PMS3003;52200;53.490;14.376;2022-08-06T09:09:01;2.80;0.00;0.00
65556;PMS3003;52200;53.490;14.376;2022-08-06T09:11:31;2.40;0.00;0.00
65556;PMS3003;52200;53.490;14.376;2022-08-06T09:14:01;2.00;0.00;0.00
65556;PMS3003;52200;53.490;14.376;2022-08-06T09:16:29;2.00;0.00;0.00
65556;PMS3003;52200;53.490;14.376;2022-08-06T09:18:57;2.00;0.00;0.00
65556;PMS3003;52200;53.490;14.376;2022-08-06T09:21:23;2.00;0.00;0.00
65556;PMS3003;52200;53.490;14.376;2022-08-06T09:23:49;2.00;0.00;0.00
65556;PMS3003;52200;53.490;14.376;2022-08-06T09:26:14;2.00;0.00;0.00
65556;PMS3003;52200;53.490;14.376;2022-08-06T09:28:41;2.00;0.00;0.00
65556;PMS3003;52200;53.490;14.376;2022-08-06T09:31:09;2.00;0.00;0.00
65556;PMS3003;52200;53.490;14.376;2022-08-06T09:33:44;2.00;0.00;0.00
65556;PMS3003;52200;53.490;14.376;2022-08-06T09:36:24;2.00;0.00;0.00
65556;PMS3003;52200;53.490;14.376;2022-08-06T09:38:58;1.80;0.00;0.00
65556;PMS3003;52200;53.490;14.376;2022-08-06T09:41:25;2.80;0.00;0.00
65556;PMS3003;52200;53.490;14.376;2022-08-06T09:43:53;2.20;0.00;0.00
65556;PMS3003;52200;53.490;14.376;2022-08-06T09:46:53;3.20;0.00;0.00
65556;PMS3003;52200;53.490;14.376;2022-08-06T09:49:13;2.80;0.00;0.00
65556;PMS3003;52200;53.490;14.376;2022-08-06T09:51:40;2.00;0.00;0.00
65556;PMS3003;52200;53.490;14.376;2022-08-06T09:54:07;2.80;0.00;0.00
65556;PMS3003;52200;53.490;14.376;2022-08-06T09:56:35;3.00;0.00;0.00
65556;PMS3003;52200;53.490;14.376;2022-08-06T09:59:05;3.40;0.00;0.00
65556;PMS3003;52200;53.490;14.376;2022-08-06T10:01:45;3.00;0.00;0.00
65556;PMS3003;52200;53.490;14.376;2022-08-06T10:04:12;3.00;0.00;0.00
65556;PMS3003;52200;53.490;14.376;2022-08-06T10:06:55;2.60;0.00;0.00
65556;PMS3003;52200;53.490;14.376;2022-08-06T10:09:23;2.00;0.00;0.00
65556;PMS3003;52200;53.490;14.376;2022-08-06T10:11:49;3.00;0.00;0.00
65556;PMS3003;52200;53.490;14.376;2022-08-06T10:14:26;2.60;0.00;0.00
65556;PMS3003;52200;53.490;14.376;2022-08-06T10:17:08;2.00;0.00;0.00
65556;PMS3003;52200;53.490;14.376;2022-08-06T10:19:39;2.00;0.00;0.00
65556;PMS3003;52200;53.490;14.376;2022-08-06T10:22:16;3.00;0.00;0.00
65556;PMS3003;52200;53.490;14.376;2022-08-06T10:24:43;3.00;0.00;0.00
65556;PMS3003;52200;53.490;14.376;2022-08-06T10:27:11;2.80;0.00;0.00
65556;PMS3003;52200;53.490;14.376;2022-08-06T10:29:40;2.80;0.00;0.00
65556;PMS3003;52200;53.490;14.376;2022-08-06T10:32:16;2.00;0.00;0.00
65556;PMS3003;52200;53.490;14.376;2022-08-06T10:34:47;3.00;0.00;0.00
65556;PMS3003;52200;53.490;14.376;2022-08-06T10:37:16;2.80;0.00;0.00
65556;PMS3003;52200;53.490;14.376;2022-08-06T10:39:45;2.20;0.00;0.00
65556;PMS3003;52200;53.490;14.376;2022-08-06T10:42:13;3.20;0.00;0.00
65556;PMS3003;52200;53.490;14.376;2022-08-06T10:44:39;3.00;0.00;0.00
65556;PMS3003;52200;53.490;14.376;2022-08-06T10:47:06;2.80;0.00;0.00
65556;PMS3003;52200;53.490;14.376;2022-08-06T10:49:32;2.80;0.00;0.00
65556;PMS3003;52200;53.490;14.376;2022-08-06T10:51:59;2.00;0.00;0.00
65556;PMS3003;52200;53.490;14.376;2022-08-06T10:54:26;3.00;0.00;0.00
65556;PMS3003;52200;53.490;14.376;2022-08-06T10:56:52;3.00;0.00;0.00
65556;PMS3003;52200;53.490;14.376;2022-08-06T10:59:19;3.20;0.00;0.00
65556;PMS3003;52200;53.490;14.376;2022-08-06T11:05:00;2.40;0.00;0.00
65556;PMS3003;52200;53.490;14.376;2022-08-06T11:13:29;2.80;0.00;0.00
65556;PMS3003;52200;53.490;14.376;2022-08-06T11:15:56;2.60;0.00;0.00
65556;PMS3003;52200;53.490;14.376;2022-08-06T11:18:22;2.20;0.00;0.00
65556;PMS3003;52200;53.490;14.376;2022-08-06T11:20:51;3.40;0.20;0.00
65556;PMS3003;52200;53.490;14.376;2022-08-06T11:23:25;3.00;0.00;0.00
65556;PMS3003;52200;53.490;14.376;2022-08-06T11:26:01;2.20;0.00;0.00
65556;PMS3003;52200;53.490;14.376;2022-08-06T11:30:55;2.00;0.00;0.00
65556;PMS3003;52200;53.490;14.376;2022-08-06T11:36:02;2.80;0.00;0.00
65556;PMS3003;52200;53.490;14.376;2022-08-06T11:41:18;3.40;0.00;0.00
65556;PMS3003;52200;53.490;14.376;2022-08-06T11:46:22;5.00;0.00;0.00
65556;PMS3003;52200;53.490;14.376;2022-08-06T11:59:35;2.80;0.00;0.00
65556;PMS3003;52200;53.490;14.376;2022-08-06T12:02:06;3.00;0.00;0.00
65556;PMS3003;52200;53.490;14.376;2022-08-06T12:09:46;3.60;0.00;0.00
65556;PMS3003;52200;53.490;14.376;2022-08-06T12:12:48;3.00;0.00;0.00
65556;PMS3003;52200;53.490;14.376;2022-08-06T12:15:36;3.00;0.00;0.00
65556;PMS3003;52200;53.490;14.376;2022-08-06T12:18:01;2.20;0.00;0.00
65556;PMS3003;52200;53.490;14.376;2022-08-06T12:22:56;4.40;0.00;0.00
65556;PMS3003;52200;53.490;14.376;2022-08-06T12:25:28;2.60;0.00;0.00
65556;PMS3003;52200;53.490;14.376;2022-08-06T12:28:16;3.60;0.80;0.20
65556;PMS3003;52200;53.490;14.376;2022-08-06T12:30:44;3.00;0.00;0.00
65556;PMS3003;52200;53.490;14.376;2022-08-06T12:33:17;3.40;0.00;0.00
65556;PMS3003;52200;53.490;14.376;2022-08-06T12:38:17;4.00;0.00;0.00
65556;PMS3003;52200;53.490;14.376;2022-08-06T12:40:51;4.20;0.40;0.00
65556;PMS3003;52200;53.490;14.376;2022-08-06T12:43:20;4.80;0.00;0.00
65556;PMS3003;52200;53.490;14.376;2022-08-06T12:45:45;3.00;0.00;0.00
65556;PMS3003;52200;53.490;14.376;2022-08-06T12:48:11;3.00;0.00;0.00
65556;PMS3003;52200;53.490;14.376;2022-08-06T12:50:39;3.00;0.00;0.00
65556;PMS3003;52200;53.490;14.376;2022-08-06T12:53:08;2.20;0.00;0.00
65556;PMS3003;52200;53.490;14.376;2022-08-06T12:55:42;3.80;0.00;0.00
65556;PMS3003;52200;53.490;14.376;2022-08-06T12:58:19;3.60;0.00;0.00
65556;PMS3003;52200;53.490;14.376;2022-08-06T13:00:52;3.20;0.00;0.00
65556;PMS3003;52200;53.490;14.376;2022-08-06T13:03:21;3.40;0.00;0.00
65556;PMS3003;52200;53.490;14.376;2022-08-06T13:05:49;3.00;0.00;0.00
65556;PMS3003;52200;53.490;14.376;2022-08-06T13:08:15;2.80;0.00;0.00
65556;PMS3003;52200;53.490;14.376;2022-08-06T13:10:50;4.00;0.00;0.00
65556;PMS3003;52200;53.490;14.376;2022-08-06T13:13:17;2.00;0.00;0.00
65556;PMS3003;52200;53.490;14.376;2022-08-06T13:15:58;2.00;0.00;0.00
65556;PMS3003;52200;53.490;14.376;2022-08-06T13:18:37;2.80;0.00;0.00
65556;PMS3003;52200;53.490;14.376;2022-08-06T13:21:04;3.00;0.00;0.00
65556;PMS3003;52200;53.490;14.376;2022-08-06T13:23:44;2.00;0.00;0.00
65556;PMS3003;52200;53.490;14.376;2022-08-06T13:26:22;2.00;0.00;0.00
65556;PMS3003;52200;53.490;14.376;2022-08-06T13:31:37;2.80;0.00;0.00
65556;PMS3003;52200;53.490;14.376;2022-08-06T13:34:09;3.00;0.00;0.00
65556;PMS3003;52200;53.490;14.376;2022-08-06T13:36:38;3.00;0.00;0.00
65556;PMS3003;52200;53.490;14.376;2022-08-06T13:44:29;3.80;0.00;0.00
65556;PMS3003;52200;53.490;14.376;2022-08-06T13:47:00;3.00;0.00;0.00
65556;PMS3003;52200;53.490;14.376;2022-08-06T13:49:25;4.40;1.00;0.00
65556;PMS3003;52200;53.490;14.376;2022-08-06T13:51:51;3.50;0.00;0.00
65556;PMS3003;52200;53.490;14.376;2022-08-06T13:54:17;4.00;1.00;0.00
65556;PMS3003;52200;53.490;14.376;2022-08-06T13:56:43;5.00;1.00;0.00
65556;PMS3003;52200;53.490;14.376;2022-08-06T13:59:08;3.20;0.20;0.00
65556;PMS3003;52200;53.490;14.376;2022-08-06T14:01:34;4.00;1.00;0.00
65556;PMS3003;52200;53.490;14.376;2022-08-06T14:03:59;4.50;0.75;0.00
65556;PMS3003;52200;53.490;14.376;2022-08-06T14:06:25;4.50;1.00;0.00
65556;PMS3003;52200;53.490;14.376;2022-08-06T14:08:50;3.25;0.00;0.00
65556;PMS3003;52200;53.490;14.376;2022-08-06T14:11:16;2.00;0.00;0.00
65556;PMS3003;52200;53.490;14.376;2022-08-06T14:13:41;3.25;0.00;0.00
65556;PMS3003;52200;53.490;14.376;2022-08-06T14:16:07;2.00;0.00;0.00
65556;PMS3003;52200;53.490;14.376;2022-08-06T14:18:33;3.00;0.00;0.00
65556;PMS3003;52200;53.490;14.376;2022-08-06T14:20:58;3.00;0.00;0.00
65556;PMS3003;52200;53.490;14.376;2022-08-06T14:23:25;2.80;0.00;0.00
65556;PMS3003;52200;53.490;14.376;2022-08-06T14:25:50;2.00;0.00;0.00
65556;PMS3003;52200;53.490;14.376;2022-08-06T14:28:16;2.00;0.00;0.00
65556;PMS3003;52200;53.490;14.376;2022-08-06T14:30:42;2.00;0.00;0.00
65556;PMS3003;52200;53.490;14.376;2022-08-06T14:33:08;2.00;0.00;0.00
65556;PMS3003;52200;53.490;14.376;2022-08-06T14:35:34;2.25;0.00;0.00
65556;PMS3003;52200;53.490;14.376;2022-08-06T14:38:02;3.00;0.00;0.00
65556;PMS3003;52200;53.490;14.376;2022-08-06T14:40:29;2.20;0.00;0.00
65556;PMS3003;52200;53.490;14.376;2022-08-06T14:43:13;2.00;0.00;0.00
65556;PMS3003;52200;53.490;14.376;2022-08-06T14:45:57;2.00;0.00;0.00
65556;PMS3003;52200;53.490;14.376;2022-08-06T14:48:23;5.00;0.00;0.00
65556;PMS3003;52200;53.490;14.376;2022-08-06T14:50:49;3.00;0.00;0.00
65556;PMS3003;52200;53.490;14.376;2022-08-06T14:53:14;2.25;0.00;0.00
65556;PMS3003;52200;53.490;14.376;2022-08-06T14:55:40;3.00;0.00;0.00
65556;PMS3003;52200;53.490;14.376;2022-08-06T14:58:05;3.00;0.00;0.00
65556;PMS3003;52200;53.490;14.376;2022-08-06T15:00:31;3.00;0.00;0.00
65556;PMS3003;52200;53.490;14.376;2022-08-06T15:02:56;2.00;0.00;0.00
65556;PMS3003;52200;53.490;14.376;2022-08-06T15:05:22;3.00;0.00;0.00
65556;PMS3003;52200;53.490;14.376;2022-08-06T15:07:47;4.50;0.00;0.00
65556;PMS3003;52200;53.490;14.376;2022-08-06T15:10:13;3.00;0.00;0.00
65556;PMS3003;52200;53.490;14.376;2022-08-06T15:12:38;6.75;1.00;0.00
65556;PMS3003;52200;53.490;14.376;2022-08-06T15:15:04;3.00;0.00;0.00
65556;PMS3003;52200;53.490;14.376;2022-08-06T15:17:30;3.60;0.00;0.00
65556;PMS3003;52200;53.490;14.376;2022-08-06T15:19:56;3.80;0.40;0.00
65556;PMS3003;52200;53.490;14.376;2022-08-06T15:22:21;3.00;0.00;0.00
65556;PMS3003;52200;53.490;14.376;2022-08-06T15:24:47;3.25;0.00;0.00
65556;PMS3003;52200;53.490;14.376;2022-08-06T15:27:12;3.00;0.00;0.00
65556;PMS3003;52200;53.490;14.376;2022-08-06T15:29:44;7.20;2.00;0.00
65556;PMS3003;52200;53.490;14.376;2022-08-06T15:32:10;3.00;0.00;0.00
65556;PMS3003;52200;53.490;14.376;2022-08-06T15:34:35;3.75;0.00;0.00
65556;PMS3003;52200;53.490;14.376;2022-08-06T15:37:02;2.00;0.00;0.00
65556;PMS3003;52200;53.490;14.376;2022-08-06T15:39:28;5.00;0.00;0.00
65556;PMS3003;52200;53.490;14.376;2022-08-06T15:41:54;3.00;0.00;0.00